Time;durP1;ratioP1;P1;durP2;ratioP2;P2;SDS_P1;SDS_P2;PMS_P1;PMS_P2;Temp;Humidity;BMP_temperature;BMP_pressure;BME280_temperature;BME280_humidity;BME280_pressure;Samples;Min_cycle;Max_cycle;Signal;HPM_P1;HPM_P2
2023/07/12 00:01:11;;;;;;;0.10;0.10;;;;;;;12.74;79.09;99033.47;4983973;28;20421;-74
2023/07/12 00:03:37;;;;;;;;;;;;;;;12.76;79.40;99033.97;4965206;28;20042;-75
2023/07/12 00:06:10;;;;;;;0.10;0.10;;;;;;;12.70;79.52;99024.25;4964975;28;20314;-75
2023/07/12 00:08:37;;;;;;;0.10;0.10;;;;;;;12.65;79.28;99038.88;4982236;28;20411;-75
2023/07/12 00:11:03;;;;;;;0.10;0.10;;;;;;;12.60;79.43;99028.03;4981365;28;20084;-75
2023/07/12 00:13:30;;;;;;;0.10;0.10;;;;;;;12.55;79.21;99025.38;4985407;28;20365;-75
2023/07/12 00:15:57;;;;;;;0.10;0.10;;;;;;;12.48;79.07;99023.03;5003269;28;20045;-75
2023/07/12 00:18:25;;;;;;;0.10;0.10;;;;;;;12.51;79.71;99027.09;4966570;28;20080;-76
2023/07/12 00:20:53;;;;;;;0.10;0.10;;;;;;;12.49;79.11;99024.69;4984095;28;20483;-75
2023/07/12 00:23:20;;;;;;;0.10;0.10;;;;;;;12.46;79.80;99028.84;4978056;28;20050;-74
2023/07/12 00:25:48;;;;;;;0.10;0.10;;;;;;;12.43;80.05;99034.13;5001498;28;20073;-75
2023/07/12 00:28:21;;;;;;;0.10;0.10;;;;;;;12.38;79.80;99023.28;4986530;28;20058;-75
2023/07/12 00:30:50;;;;;;;0.10;0.10;;;;;;;12.36;79.59;99020.81;4986572;28;20062;-74
2023/07/12 00:33:17;;;;;;;0.10;0.10;;;;;;;12.39;79.44;99039.41;4984244;28;20061;-76
2023/07/12 00:35:44;;;;;;;0.10;0.10;;;;;;;12.38;79.46;99029.53;4984164;28;20050;-75
2023/07/12 00:38:16;;;;;;;0.10;0.10;;;;;;;12.32;79.04;99031.56;4970797;28;20049;-75
2023/07/12 00:41:01;;;;;;;0.10;0.10;;;;;;;12.36;79.09;99034.53;4987257;28;20615;-75
2023/07/12 00:43:33;;;;;;;0.10;0.10;;;;;;;12.38;79.22;99026.00;5003171;28;20046;-75
2023/07/12 00:46:07;;;;;;;0.10;0.10;;;;;;;12.41;79.24;99028.97;4970830;28;20060;-75
2023/07/12 00:48:33;;;;;;;0.10;0.10;;;;;;;12.51;79.18;99027.94;4986287;28;20522;-75
2023/07/12 00:51:07;;;;;;;0.10;0.10;;;;;;;12.54;79.09;99027.31;4973544;28;20125;-75
2023/07/12 00:53:34;;;;;;;0.17;0.17;;;;;;;12.57;79.54;99034.13;4982984;28;20050;-74
2023/07/12 00:56:03;;;;;;;0.10;0.10;;;;;;;12.59;79.28;99029.13;4982800;28;20047;-75
2023/07/12 00:58:34;;;;;;;0.10;0.10;;;;;;;12.53;79.13;99022.94;4987056;28;20046;-76
2023/07/12 01:01:04;;;;;;;0.10;0.10;;;;;;;12.52;79.86;99029.56;4988067;28;20058;-75
2023/07/12 01:03:35;;;;;;;0.10;0.10;;;;;;;12.57;80.23;99020.41;4986272;28;20340;-75
2023/07/12 01:06:05;;;;;;;0.10;0.10;;;;;;;12.60;80.29;99017.06;4983875;28;20070;-74
2023/07/12 01:08:31;;;;;;;0.10;0.10;;;;;;;12.61;79.89;99022.22;4983935;28;20058;-75
2023/07/12 01:11:01;;;;;;;0.10;0.10;;;;;;;12.61;79.35;99016.72;4985855;28;20410;-74
2023/07/12 01:13:29;;;;;;;0.10;0.10;;;;;;;12.56;79.92;99018.75;4984910;28;20082;-74
2023/07/12 01:15:58;;;;;;;0.10;0.10;;;;;;;12.57;80.83;99023.16;4968374;28;20088;-74
2023/07/12 01:18:25;;;;;;;0.10;0.10;;;;;;;12.62;80.46;99014.81;4993077;28;20050;-74
2023/07/12 01:21:04;;;;;;;0.10;0.10;;;;;;;12.65;80.13;99013.38;4951063;28;20054;-74
2023/07/12 01:23:31;;;;;;;0.20;0.20;;;;;;;12.63;79.98;99008.19;4931631;28;20458;-73
2023/07/12 01:26:17;;;;;;;0.10;0.10;;;;;;;12.58;80.54;99009.13;4948188;28;20142;-74
2023/07/12 01:28:46;;;;;;;0.20;0.20;;;;;;;12.58;80.33;99008.31;4986496;28;20066;-74
2023/07/12 01:31:12;;;;;;;0.10;0.10;;;;;;;12.52;80.55;98999.38;4986068;28;20077;-75
2023/07/12 01:33:39;;;;;;;0.10;0.10;;;;;;;12.52;80.11;99001.31;4998187;28;20546;-75
2023/07/12 01:36:10;;;;;;;0.10;0.10;;;;;;;12.49;79.55;99008.25;4968867;28;20050;-75
2023/07/12 01:38:36;;;;;;;0.10;0.10;;;;;;;12.44;79.24;99008.31;4961002;28;20047;-74
2023/07/12 01:41:02;;;;;;;0.10;0.10;;;;;;;12.38;79.45;99001.34;4965266;28;20072;-75
2023/07/12 01:43:30;;;;;;;0.10;0.10;;;;;;;12.27;79.76;98987.03;4994237;28;20458;-75
2023/07/12 01:45:57;;;;;;;0.10;0.10;;;;;;;12.32;79.61;98990.47;4964552;28;20093;-73
2023/07/12 01:48:23;;;;;;;0.20;0.20;;;;;;;12.33;79.62;98997.59;4965854;28;20142;-74
2023/07/12 01:50:49;;;;;;;0.20;0.20;;;;;;;12.39;79.80;98997.47;4971885;28;20145;-75
2023/07/12 01:53:17;;;;;;;0.10;0.10;;;;;;;12.44;80.18;99002.84;4999336;28;20053;-75
2023/07/12 01:55:44;;;;;;;0.20;0.20;;;;;;;12.47;79.44;98989.34;4967015;28;20050;-75
2023/07/12 01:58:11;;;;;;;0.10;0.10;;;;;;;12.52;79.54;99002.13;4998257;28;20046;-75
2023/07/12 02:00:37;;;;;;;0.10;0.10;;;;;;;12.59;79.24;98996.22;4999903;28;20782;-75
2023/07/12 02:03:03;;;;;;;0.10;0.10;;;;;;;12.59;78.46;98988.00;4981877;28;20137;-75
2023/07/12 02:05:30;;;;;;;0.10;0.10;;;;;;;12.65;78.76;98989.50;4983657;28;20043;-75
2023/07/12 02:07:56;;;;;;;0.20;0.20;;;;;;;12.73;78.14;98996.19;4983641;28;20050;-75
2023/07/12 02:10:26;;;;;;;0.13;0.13;;;;;;;12.71;78.08;99003.91;5002290;28;20058;-74
2023/07/12 02:12:53;;;;;;;0.10;0.10;;;;;;;12.64;78.14;98993.38;4970988;28;20479;-74
2023/07/12 02:15:20;;;;;;;0.20;0.20;;;;;;;12.65;78.14;98985.97;4985214;28;20533;-74
2023/07/12 02:17:46;;;;;;;0.10;0.10;;;;;;;12.68;77.52;98990.81;4983350;28;20050;-74
2023/07/12 02:20:14;;;;;;;0.10;0.10;;;;;;;12.66;77.72;98985.63;4988103;28;20540;-75
2023/07/12 02:22:43;;;;;;;0.20;0.20;;;;;;;12.62;77.75;98995.59;4987274;28;20050;-75
2023/07/12 02:25:11;;;;;;;0.10;0.10;;;;;;;12.55;77.81;98993.28;4983116;28;20077;-75
2023/07/12 02:27:39;;;;;;;0.10;0.10;;;;;;;12.52;77.60;98993.09;4983380;28;20051;-74
2023/07/12 02:30:07;;;;;;;0.10;0.10;;;;;;;12.45;77.16;98991.59;4977816;28;20434;-75
2023/07/12 02:32:33;;;;;;;0.10;0.10;;;;;;;12.51;76.71;98984.06;4964516;28;20051;-75
2023/07/12 02:34:59;;;;;;;0.15;0.15;;;;;;;12.48;76.84;98987.41;4947808;28;20467;-75
2023/07/12 02:37:26;;;;;;;0.10;0.10;;;;;;;12.49;76.75;98989.03;4978036;28;20055;-75
2023/07/12 02:39:52;;;;;;;0.10;0.10;;;;;;;12.55;76.57;98985.06;4966554;28;20074;-75
2023/07/12 02:42:18;;;;;;;0.10;0.10;;;;;;;12.57;76.63;98988.31;4963097;28;20093;-74
2023/07/12 02:44:46;;;;;;;0.20;0.20;;;;;;;12.66;76.56;98985.63;4983354;28;20050;-75
2023/07/12 02:47:12;;;;;;;0.10;0.10;;;;;;;12.67;76.04;98984.53;4983957;28;20172;-75
2023/07/12 02:49:39;;;;;;;0.10;0.10;;;;;;;12.70;75.88;98983.09;4980686;28;20624;-75
2023/07/12 02:52:07;;;;;;;0.20;0.20;;;;;;;12.73;75.14;98985.22;4963980;28;20046;-75
2023/07/12 02:54:34;;;;;;;0.10;0.10;;;;;;;12.69;74.81;98985.00;4966347;28;20050;-74
2023/07/12 02:57:01;;;;;;;0.20;0.20;;;;;;;12.61;74.37;98980.28;4967430;28;20049;-74
2023/07/12 02:59:28;;;;;;;0.10;0.10;;;;;;;12.55;74.56;98987.81;4977970;28;20058;-74
2023/07/12 03:01:56;;;;;;;0.10;0.10;;;;;;;12.52;74.36;98985.69;4983212;28;20073;-75
2023/07/12 03:04:22;;;;;;;;;;;;;;;12.50;74.45;98981.63;4966560;28;20074;-75
2023/07/12 03:06:49;;;;;;;0.10;0.10;;;;;;;12.55;74.84;98984.25;4983789;28;19925;-75
2023/07/12 03:09:15;;;;;;;0.10;0.10;;;;;;;12.61;73.90;98981.06;5000939;28;20050;-75
2023/07/12 03:11:44;;;;;;;0.10;0.10;;;;;;;12.67;73.97;98984.53;4965619;28;20518;-75
2023/07/12 03:14:10;;;;;;;0.10;0.10;;;;;;;12.65;73.35;98984.03;4983013;28;20058;-75
2023/07/12 03:16:37;;;;;;;0.10;0.10;;;;;;;12.63;72.33;98987.06;4979925;28;20050;-75
2023/07/12 03:19:04;;;;;;;0.20;0.20;;;;;;;12.75;71.82;98991.19;4999751;28;20042;-76
2023/07/12 03:21:30;;;;;;;0.10;0.10;;;;;;;12.92;71.75;98985.06;4968843;28;20054;-75
2023/07/12 03:23:56;;;;;;;0.20;0.20;;;;;;;13.23;70.70;98978.00;4963681;28;20565;-77
2023/07/12 03:26:23;;;;;;;0.20;0.20;;;;;;;13.50;69.93;98976.28;4970334;28;20050;-75
2023/07/12 03:28:49;;;;;;;0.20;0.20;;;;;;;13.69;68.53;98976.06;4981124;28;20084;-76
2023/07/12 03:31:16;;;;;;;0.20;0.20;;;;;;;13.71;67.80;98962.81;4964918;28;20098;-75
2023/07/12 03:33:44;;;;;;;0.20;0.20;;;;;;;13.63;67.46;98972.63;4981424;28;20573;-75
2023/07/12 03:36:12;;;;;;;0.20;0.20;;;;;;;13.62;68.80;98971.03;4982862;28;20564;-76
2023/07/12 03:38:38;;;;;;;0.20;0.20;;;;;;;13.73;68.56;98979.78;4980140;28;20105;-75
2023/07/12 03:41:08;;;;;;;0.20;0.20;;;;;;;13.76;68.10;98976.41;4982897;28;20408;-76
2023/07/12 03:43:34;;;;;;;0.20;0.20;;;;;;;13.75;67.69;98974.78;4982464;28;20078;-75
2023/07/12 03:46:01;;;;;;;0.20;0.20;;;;;;;13.52;69.33;98968.53;4985106;28;20061;-75
2023/07/12 03:48:27;;;;;;;0.20;0.20;;;;;;;13.32;70.03;98968.69;4984440;28;20058;-74
2023/07/12 03:50:57;;;;;;;0.10;0.10;;;;;;;13.02;71.32;98970.28;4983602;28;20560;-74
2023/07/12 03:53:28;;;;;;;0.20;0.20;;;;;;;12.90;72.40;98976.34;5001116;28;20046;-74
2023/07/12 03:55:58;;;;;;;0.10;0.10;;;;;;;12.83;72.36;98957.56;4983508;28;20054;-74
2023/07/12 03:58:26;;;;;;;0.10;0.10;;;;;;;12.97;72.40;98959.44;4981745;28;20422;-74
2023/07/12 04:00:52;;;;;;;0.20;0.20;;;;;;;13.08;71.63;98960.00;4997737;28;20514;-74
2023/07/12 04:03:19;;;;;;;0.20;0.20;;;;;;;12.99;71.68;98960.72;4983976;28;20057;-74
2023/07/12 04:05:50;;;;;;;0.13;0.13;;;;;;;12.83;71.85;98957.56;4981411;28;20055;-74
2023/07/12 04:08:16;;;;;;;0.10;0.10;;;;;;;12.90;72.22;98960.66;4976810;28;20104;-74
2023/07/12 04:10:44;;;;;;;0.20;0.20;;;;;;;12.96;72.03;98957.81;4974265;28;20061;-74
2023/07/12 04:13:09;;;;;;;;;;;;;;;13.03;71.83;98961.75;4983585;28;20046;-74
2023/07/12 04:15:36;;;;;;;0.10;0.10;;;;;;;12.99;71.41;98962.69;4980567;28;19925;-74
2023/07/12 04:18:03;;;;;;;0.10;0.10;;;;;;;12.90;71.84;98965.38;5002104;28;20498;-74
2023/07/12 04:20:29;;;;;;;;;;;;;;;12.89;72.39;98964.53;4989345;28;20054;-74
2023/07/12 04:22:56;;;;;;;0.10;0.10;;;;;;;12.94;71.38;98960.03;4982997;28;19988;-74
2023/07/12 04:25:22;;;;;;;0.10;0.10;;;;;;;12.98;71.19;98961.06;4982134;28;20046;-74
2023/07/12 04:27:49;;;;;;;0.10;0.10;;;;;;;13.16;70.12;98960.06;4981770;28;20054;-74
2023/07/12 04:30:16;;;;;;;0.10;0.10;;;;;;;13.37;68.01;98961.47;4979401;28;20142;-74
2023/07/12 04:32:47;;;;;;;0.20;0.20;;;;;;;13.37;67.62;98966.97;4980715;28;20435;-74
2023/07/12 04:35:13;;;;;;;0.20;0.20;;;;;;;13.43;66.32;98966.56;4981664;28;20116;-74
2023/07/12 04:37:44;;;;;;;0.20;0.20;;;;;;;13.47;66.22;98973.03;4981733;28;20047;-75
2023/07/12 04:40:11;;;;;;;0.20;0.20;;;;;;;13.54;65.81;98969.03;4982804;28;20145;-74
2023/07/12 04:42:37;;;;;;;0.20;0.20;;;;;;;13.66;65.27;98968.44;4980618;28;20094;-74
2023/07/12 04:45:07;;;;;;;0.20;0.20;;;;;;;13.83;64.80;98963.03;4968377;28;20125;-74
2023/07/12 04:47:34;;;;;;;0.20;0.20;;;;;;;13.91;63.19;98955.97;4965899;28;20078;-75
2023/07/12 04:50:00;;;;;;;0.28;0.28;;;;;;;13.99;62.95;98962.59;4978754;28;20053;-75
2023/07/12 04:52:26;;;;;;;0.20;0.20;;;;;;;14.03;62.47;98966.34;4965366;28;20491;-75
2023/07/12 04:54:56;;;;;;;0.20;0.20;;;;;;;14.21;62.09;98958.13;4965284;28;20074;-75
2023/07/12 04:57:22;;;;;;;0.20;0.20;;;;;;;14.39;61.31;98970.00;4979469;28;20183;-75
2023/07/12 04:59:49;;;;;;;0.20;0.20;;;;;;;14.46;60.59;98970.31;4971350;28;20038;-74
2023/07/12 05:02:17;;;;;;;0.20;0.20;;;;;;;14.51;60.46;98972.09;4986096;28;20064;-75
2023/07/12 05:04:44;;;;;;;0.30;0.30;;;;;;;14.77;59.08;98968.59;5003209;28;20042;-75
2023/07/12 05:07:10;;;;;;;0.20;0.20;;;;;;;14.91;59.92;98977.50;4959460;28;20051;-75
2023/07/12 05:09:37;;;;;;;0.30;0.30;;;;;;;14.99;58.83;98959.38;4971477;28;20070;-74
2023/07/12 05:12:04;;;;;;;0.30;0.30;;;;;;;15.04;57.89;98961.94;4987439;28;20621;-74
2023/07/12 05:14:31;;;;;;;0.30;0.30;;;;;;;14.93;57.67;98966.16;5001381;28;20444;-74
2023/07/12 05:16:57;;;;;;;0.30;0.30;;;;;;;15.11;57.38;98959.50;4983589;28;20540;-74
2023/07/12 05:19:24;;;;;;;0.30;0.30;;;;;;;15.54;57.59;98954.25;4989832;28;20050;-74
2023/07/12 05:21:51;;;;;;;0.20;0.20;;;;;;;15.66;57.87;98959.88;4985210;28;20046;-74
2023/07/12 05:24:17;;;;;;;0.20;0.20;;;;;;;15.50;57.98;98953.28;4968084;28;20503;-74
2023/07/12 05:26:43;;;;;;;0.30;0.30;;;;;;;15.20;58.93;98953.97;4978449;28;20418;-74
2023/07/12 05:29:12;;;;;;;0.30;0.30;;;;;;;14.99;59.39;98954.66;4965764;28;20053;-74
2023/07/12 05:31:38;;;;;;;0.30;0.30;;;;;;;14.84;60.05;98946.91;4963664;28;20058;-74
2023/07/12 05:34:04;;;;;;;0.20;0.20;;;;;;;14.49;60.57;98947.66;4980365;28;20046;-73
2023/07/12 05:36:32;;;;;;;0.20;0.20;;;;;;;14.18;61.98;98941.16;4968271;28;20161;-73
2023/07/12 05:38:59;;;;;;;0.20;0.20;;;;;;;14.04;62.81;98944.00;4980975;28;20047;-74
2023/07/12 05:41:25;;;;;;;0.20;0.20;;;;;;;13.94;62.44;98930.59;4987570;28;20050;-75
2023/07/12 05:43:51;;;;;;;0.20;0.20;;;;;;;13.89;62.79;98944.44;4982078;28;20050;-73
2023/07/12 05:46:17;;;;;;;0.20;0.20;;;;;;;13.88;63.12;98931.84;4983334;28;20047;-74
2023/07/12 05:48:44;;;;;;;0.20;0.20;;;;;;;13.98;63.29;98939.81;4982975;28;20066;-75
2023/07/12 05:51:10;;;;;;;0.20;0.20;;;;;;;14.06;60.54;98931.91;4965778;28;20054;-74
2023/07/12 05:53:38;;;;;;;0.52;0.30;;;;;;;14.02;61.35;98927.03;4984327;28;20510;-74
2023/07/12 05:56:05;;;;;;;0.20;0.20;;;;;;;14.16;61.67;98935.16;4984758;28;20039;-74
2023/07/12 05:58:31;;;;;;;0.20;0.20;;;;;;;14.27;62.32;98926.59;4985639;28;20510;-74
2023/07/12 06:00:58;;;;;;;0.20;0.20;;;;;;;14.31;61.42;98922.09;4983818;28;20054;-74
2023/07/12 06:03:24;;;;;;;0.20;0.20;;;;;;;14.20;60.65;98921.56;4945376;28;20054;-74
2023/07/12 06:05:52;;;;;;;0.20;0.20;;;;;;;14.22;60.63;98924.00;4968063;28;20557;-74
2023/07/12 06:08:18;;;;;;;0.20;0.20;;;;;;;14.38;60.75;98916.91;4982958;28;20054;-74
2023/07/12 06:10:46;;;;;;;0.20;0.20;;;;;;;14.57;59.33;98927.63;4984002;28;20045;-74
2023/07/12 06:13:13;;;;;;;0.30;0.30;;;;;;;14.60;58.70;98923.44;4983525;28;20042;-74
2023/07/12 06:15:39;;;;;;;0.30;0.30;;;;;;;14.52;58.59;98927.78;4981805;28;20084;-75
2023/07/12 06:18:05;;;;;;;0.30;0.30;;;;;;;14.50;59.19;98916.28;4979101;28;20305;-74
2023/07/12 06:20:32;;;;;;;0.30;0.30;;;;;;;14.88;59.07;98912.91;4977109;28;20054;-75
2023/07/12 06:22:58;;;;;;;0.20;0.20;;;;;;;15.10;58.89;98916.59;4962017;28;20054;-74
2023/07/12 06:25:24;;;;;;;0.20;0.20;;;;;;;14.99;59.57;98916.13;4964042;28;20305;-75
2023/07/12 06:27:52;;;;;;;0.20;0.20;;;;;;;14.92;60.16;98917.75;4980562;28;20150;-74
2023/07/12 06:30:18;;;;;;;;;;;;;;;14.98;59.69;98916.44;4983388;28;20672;-75
2023/07/12 06:32:45;;;;;;;0.30;0.30;;;;;;;15.24;57.95;98927.44;4966945;28;19926;-74
2023/07/12 06:35:11;;;;;;;0.30;0.30;;;;;;;15.38;56.22;98923.69;4981772;28;20054;-74
2023/07/12 06:37:37;;;;;;;0.30;0.30;;;;;;;15.32;56.46;98928.56;4985147;28;20550;-74
2023/07/12 06:40:05;;;;;;;0.30;0.30;;;;;;;15.30;56.20;98919.81;4984643;28;20043;-74
2023/07/12 06:42:32;;;;;;;0.30;0.30;;;;;;;15.36;56.23;98925.94;4974858;28;20038;-74
2023/07/12 06:45:00;;;;;;;0.30;0.30;;;;;;;15.40;56.89;98924.94;4983916;28;20050;-74
2023/07/12 06:47:26;;;;;;;0.40;0.30;;;;;;;15.35;56.02;98905.03;4977727;28;20054;-74
2023/07/12 06:49:53;;;;;;;0.30;0.30;;;;;;;15.55;56.40;98926.38;4984542;28;20046;-75
2023/07/12 06:52:19;;;;;;;0.30;0.30;;;;;;;15.66;57.35;98914.97;4983121;28;20050;-75
2023/07/12 06:54:46;;;;;;;0.30;0.30;;;;;;;15.64;57.99;98922.75;4967565;28;20280;-74
2023/07/12 06:57:12;;;;;;;0.30;0.30;;;;;;;15.50;57.51;98923.00;4982313;28;20039;-75
2023/07/12 06:59:39;;;;;;;0.20;0.20;;;;;;;15.36;57.15;98924.00;4984702;28;20066;-74
2023/07/12 07:02:09;;;;;;;0.20;0.20;;;;;;;15.28;57.41;98925.63;4982731;28;20525;-74
2023/07/12 07:04:44;;;;;;;0.30;0.30;;;;;;;15.29;58.01;98919.00;4984048;28;20085;-75
2023/07/12 07:07:10;;;;;;;0.30;0.30;;;;;;;15.17;58.34;98910.59;4951267;28;20049;-75
2023/07/12 07:09:38;;;;;;;0.30;0.30;;;;;;;15.30;58.71;98906.84;4984988;28;20584;-74
2023/07/12 07:12:05;;;;;;;0.40;0.40;;;;;;;15.59;57.97;98918.25;4987601;28;20053;-74
2023/07/12 07:14:31;;;;;;;0.30;0.30;;;;;;;15.93;57.03;98913.75;4984054;28;20106;-74
2023/07/12 07:16:58;;;;;;;0.30;0.30;;;;;;;16.00;55.95;98908.53;4978627;28;20078;-74
2023/07/12 07:19:25;;;;;;;0.30;0.30;;;;;;;15.84;56.35;98919.28;4979964;28;20062;-74
2023/07/12 07:21:51;;;;;;;0.20;0.20;;;;;;;15.49;57.67;98919.41;4983507;28;20054;-74
2023/07/12 07:24:18;;;;;;;0.20;0.20;;;;;;;15.25;58.44;98915.28;4979716;28;20072;-74
2023/07/12 07:26:44;;;;;;;0.20;0.20;;;;;;;14.92;59.94;98912.25;4959428;28;20053;-74
2023/07/12 07:29:11;;;;;;;0.20;0.20;;;;;;;14.64;60.44;98912.56;4974828;28;20050;-74
2023/07/12 07:31:37;;;;;;;0.20;0.20;;;;;;;14.35;62.12;98912.06;4976388;28;20165;-74
2023/07/12 07:34:04;;;;;;;0.20;0.20;;;;;;;14.07;63.36;98917.84;4984599;28;20050;-74
2023/07/12 07:36:32;;;;;;;0.20;0.20;;;;;;;13.95;64.53;98920.38;4972245;28;20043;-74
2023/07/12 07:38:58;;;;;;;0.20;0.20;;;;;;;13.87;64.47;98924.72;4971645;28;20611;-73
2023/07/12 07:41:24;;;;;;;0.20;0.20;;;;;;;13.70;65.12;98923.53;4972403;28;20053;-74
2023/07/12 07:43:51;;;;;;;0.10;0.10;;;;;;;13.55;65.78;98910.22;4972220;28;20101;-74
2023/07/12 07:46:17;;;;;;;0.20;0.20;;;;;;;13.43;66.40;98919.88;4983665;28;20038;-74
2023/07/12 07:48:43;;;;;;;0.20;0.20;;;;;;;13.32;67.00;98911.06;4981238;28;20054;-74
2023/07/12 07:51:10;;;;;;;0.20;0.20;;;;;;;13.33;67.20;98920.13;4983376;28;20113;-74
2023/07/12 07:53:38;;;;;;;0.20;0.20;;;;;;;13.39;66.98;98926.28;4981138;28;20051;-74
2023/07/12 07:56:04;;;;;;;0.20;0.20;;;;;;;13.42;66.97;98922.91;4982780;28;20042;-74
2023/07/12 07:58:31;;;;;;;0.20;0.20;;;;;;;13.45;66.82;98905.81;4998980;28;20074;-74
2023/07/12 08:00:57;;;;;;;0.20;0.20;;;;;;;13.49;66.59;98912.28;4979456;28;20276;-74
2023/07/12 08:03:23;;;;;;;0.20;0.20;;;;;;;13.60;66.35;98916.38;4984092;28;20050;-74
2023/07/12 08:05:50;;;;;;;0.20;0.20;;;;;;;13.90;65.56;98918.63;4962790;28;20418;-73
2023/07/12 08:08:16;;;;;;;0.20;0.20;;;;;;;14.12;64.83;98919.63;4983609;28;20120;-74
2023/07/12 08:10:43;;;;;;;0.20;0.20;;;;;;;14.20;64.34;98924.31;4967050;28;20129;-75
2023/07/12 08:13:11;;;;;;;;;;;;;;;14.15;63.85;98922.56;4964150;28;20065;-74
2023/07/12 08:15:38;;;;;;;0.20;0.20;;;;;;;14.14;64.00;98922.88;4983426;28;20358;-75
2023/07/12 08:18:04;;;;;;;0.20;0.20;;;;;;;14.37;64.01;98920.81;4999660;28;20058;-75
2023/07/12 08:20:30;;;;;;;0.30;0.30;;;;;;;14.44;63.85;98925.81;4982505;28;20049;-75
2023/07/12 08:22:58;;;;;;;0.20;0.20;;;;;;;14.77;63.20;98921.84;4981816;28;20050;-73
2023/07/12 08:25:24;;;;;;;0.20;0.20;;;;;;;15.09;61.84;98925.19;4984103;28;20197;-73
2023/07/12 08:27:52;;;;;;;0.30;0.30;;;;;;;15.12;61.79;98916.28;4971801;28;20091;-74
2023/07/12 08:30:18;;;;;;;0.20;0.20;;;;;;;15.09;62.00;98917.72;4965081;28;20240;-74
2023/07/12 08:32:44;;;;;;;0.20;0.20;;;;;;;14.93;61.01;98913.88;4976591;28;20045;-73
2023/07/12 08:35:11;;;;;;;0.20;0.20;;;;;;;14.54;62.97;98916.44;4980741;28;20050;-73
2023/07/12 08:37:37;;;;;;;0.20;0.20;;;;;;;14.31;63.42;98914.66;4958118;28;20054;-73
2023/07/12 08:40:05;;;;;;;0.20;0.20;;;;;;;14.21;63.92;98923.22;4986484;28;20141;-73
2023/07/12 08:42:35;;;;;;;;;;;;;;;14.14;63.93;98920.13;4985309;28;20054;-73
2023/07/12 08:45:18;;;;;;;0.20;0.20;;;;;;;14.06;64.64;98918.97;4999156;28;19926;-74
2023/07/12 08:47:46;;;;;;;0.20;0.20;;;;;;;14.17;64.89;98924.97;4987845;28;20140;-74
2023/07/12 08:50:13;;;;;;;0.20;0.20;;;;;;;14.38;64.04;98918.88;4987087;28;20061;-74
2023/07/12 08:52:40;;;;;;;0.20;0.20;;;;;;;14.45;64.17;98910.94;4986935;28;20054;-73
2023/07/12 08:55:14;;;;;;;0.20;0.20;;;;;;;14.54;63.23;98924.69;4984949;28;20049;-73
2023/07/12 08:57:41;;;;;;;0.20;0.20;;;;;;;14.56;62.69;98915.00;5003382;28;20068;-73
2023/07/12 09:00:15;;;;;;;0.20;0.20;;;;;;;14.72;63.10;98928.31;4986004;28;20050;-73
2023/07/12 09:02:41;;;;;;;0.30;0.30;;;;;;;14.78;62.08;98928.94;4983265;28;20465;-73
2023/07/12 09:05:12;;;;;;;0.20;0.20;;;;;;;14.70;63.17;98930.53;4981960;28;20043;-73
2023/07/12 09:07:53;;;;;;;0.20;0.20;;;;;;;14.59;64.72;98938.28;4970926;28;20050;-73
2023/07/12 09:10:33;;;;;;;0.20;0.20;;;;;;;14.44;66.56;98945.06;4984905;28;20050;-73
2023/07/12 09:13:00;;;;;;;0.20;0.20;;;;;;;14.36;68.28;98938.44;4980391;28;20141;-73
2023/07/12 09:15:36;;;;;;;0.20;0.20;;;;;;;14.15;71.65;98943.72;4951315;28;20043;-73
2023/07/12 09:18:07;;;;;;;0.20;0.20;;;;;;;13.98;74.35;98947.25;4971871;28;20054;-74
2023/07/12 09:20:37;;;;;;;0.20;0.20;;;;;;;13.87;76.23;98946.69;4985785;28;20062;-74
2023/07/12 09:23:05;;;;;;;0.20;0.20;;;;;;;13.80;77.38;98946.38;4984013;28;20502;-74
2023/07/12 09:25:36;;;;;;;0.20;0.20;;;;;;;13.82;78.61;98950.44;4977773;28;20098;-74
2023/07/12 09:28:03;;;;;;;0.20;0.20;;;;;;;13.85;79.79;98952.53;4983857;28;20050;-74
2023/07/12 09:30:33;;;;;;;0.13;0.13;;;;;;;13.95;79.88;98945.13;4985543;28;20516;-74
2023/07/12 09:33:03;;;;;;;0.20;0.20;;;;;;;14.01;79.36;98939.16;4985188;28;20066;-74
2023/07/12 09:35:37;;;;;;;0.10;0.10;;;;;;;13.98;80.42;98942.53;4996030;28;20078;-74
2023/07/12 09:38:08;;;;;;;0.15;0.15;;;;;;;13.86;82.25;98948.66;4974211;28;20413;-74
2023/07/12 09:40:38;;;;;;;0.20;0.20;;;;;;;13.79;84.43;98936.50;4985578;28;20050;-73
2023/07/12 09:43:13;;;;;;;0.20;0.20;;;;;;;13.75;82.66;98937.16;4966890;28;20140;-73
2023/07/12 09:45:47;;;;;;;0.20;0.20;;;;;;;13.76;81.88;98926.97;5000319;28;20682;-73
2023/07/12 09:48:26;;;;;;;0.20;0.20;;;;;;;13.92;81.61;98926.53;4626436;28;10000474;-73
2023/07/12 09:51:07;;;;;;;0.28;0.28;;;;;;;14.23;80.11;98928.38;4969633;28;20054;-73
2023/07/12 09:53:40;;;;;;;0.20;0.20;;;;;;;14.52;78.55;98926.97;4963020;28;20517;-74
2023/07/12 09:56:18;;;;;;;0.20;0.20;;;;;;;14.86;77.19;98936.38;4981723;28;20038;-74
2023/07/12 09:58:53;;;;;;;0.20;0.20;;;;;;;15.10;76.02;98926.81;4964726;28;20045;-74
2023/07/12 10:01:29;;;;;;;0.20;0.20;;;;;;;15.34;73.93;98931.78;4971549;28;20051;-75
2023/07/12 10:04:00;;;;;;;0.20;0.20;;;;;;;15.42;72.75;98913.63;4983772;28;20057;-74
2023/07/12 10:06:32;;;;;;;0.20;0.20;;;;;;;15.60;71.50;98928.94;4982255;28;20057;-74
2023/07/12 10:09:06;;;;;;;0.20;0.20;;;;;;;15.67;69.73;98913.84;4981794;28;20588;-74
2023/07/12 10:11:40;;;;;;;0.20;0.20;;;;;;;15.63;67.98;98915.63;4980994;28;20200;-74
2023/07/12 10:14:12;;;;;;;0.20;0.20;;;;;;;15.49;67.03;98924.13;4980245;28;20046;-75
2023/07/12 10:16:48;;;;;;;0.30;0.30;;;;;;;15.40;63.88;98911.19;4979110;28;20054;-74
2023/07/12 10:19:19;;;;;;;0.30;0.30;;;;;;;15.45;60.06;98913.78;4965098;28;20073;-75
2023/07/12 10:21:46;;;;;;;0.20;0.20;;;;;;;15.59;59.58;98913.56;4981912;28;20038;-75
2023/07/12 10:24:15;;;;;;;0.30;0.30;;;;;;;15.97;58.55;98900.94;4964973;28;20054;-75
2023/07/12 10:26:46;;;;;;;0.30;0.30;;;;;;;16.27;56.26;98898.16;4982939;28;20442;-74
2023/07/12 10:29:21;;;;;;;0.30;0.30;;;;;;;16.79;55.35;98900.84;4958727;28;20403;-73
2023/07/12 10:31:55;;;;;;;0.28;0.28;;;;;;;17.19;54.59;98903.06;4980985;28;20042;-74
2023/07/12 10:34:25;;;;;;;0.32;0.32;;;;;;;17.52;53.47;98907.72;4983838;28;20042;-76
2023/07/12 10:36:54;;;;;;;0.30;0.30;;;;;;;17.38;52.23;98912.75;4982884;28;20047;-74
2023/07/12 10:39:22;;;;;;;0.30;0.30;;;;;;;17.00;52.16;98903.56;4973594;28;20042;-74
2023/07/12 10:41:51;;;;;;;0.30;0.30;;;;;;;16.88;51.45;98907.06;4983563;28;20576;-74
2023/07/12 10:44:20;;;;;;;0.30;0.30;;;;;;;16.69;52.33;98902.03;4976200;28;20141;-75
2023/07/12 10:46:52;;;;;;;0.30;0.30;;;;;;;16.68;52.56;98900.41;4959445;28;20050;-75
2023/07/12 10:49:20;;;;;;;0.30;0.30;;;;;;;16.75;51.70;98895.16;4979617;28;20082;-75
2023/07/12 10:52:15;;;;;;;0.20;0.20;;;;;;;16.77;50.68;98903.91;4979472;28;20067;-75
2023/07/12 10:55:02;;;;;;;0.20;0.20;;;;;;;16.71;51.21;98910.81;4972798;28;20050;-74
2023/07/12 10:57:38;;;;;;;0.20;0.20;;;;;;;16.47;50.67;98895.72;4993697;28;20085;-74
2023/07/12 11:00:21;;;;;;;0.30;0.30;;;;;;;16.43;51.67;98894.78;4984526;28;20082;-75
2023/07/12 11:03:01;;;;;;;0.20;0.20;;;;;;;16.41;52.27;98902.59;4975700;28;20047;-73
2023/07/12 11:05:39;;;;;;;0.22;0.22;;;;;;;16.41;52.67;98897.88;4972000;28;20050;-74
2023/07/12 11:08:39;;;;;;;0.20;0.20;;;;;;;16.38;51.84;98894.97;4987479;28;20125;-75
2023/07/12 11:11:49;;;;;;;0.20;0.20;;;;;;;16.27;52.09;98911.13;4986863;28;20456;-74
2023/07/12 11:14:19;;;;;;;0.22;0.22;;;;;;;16.16;51.61;98905.19;4975144;28;20490;-74
2023/07/12 11:17:03;;;;;;;0.20;0.20;;;;;;;16.13;52.34;98914.13;4974067;28;20126;-75
2023/07/12 11:19:46;;;;;;;0.20;0.20;;;;;;;16.14;52.96;98913.00;4967187;28;20059;-75
2023/07/12 11:22:17;;;;;;;0.20;0.20;;;;;;;16.09;52.98;98910.44;4968251;28;20054;-75
2023/07/12 11:24:52;;;;;;;0.20;0.20;;;;;;;16.06;52.91;98906.38;4982909;28;20046;-75
2023/07/12 11:27:32;;;;;;;0.20;0.20;;;;;;;15.94;52.39;98906.28;4968581;28;20154;-76
2023/07/12 11:30:13;;;;;;;0.30;0.30;;;;;;;16.02;52.34;98903.47;4975783;28;20050;-76
2023/07/12 11:32:40;;;;;;;0.30;0.30;;;;;;;16.30;51.79;98907.69;4968469;28;20438;-76
2023/07/12 11:35:13;;;;;;;;;;;;;;;16.72;50.30;98909.66;4985839;28;20046;-75
2023/07/12 11:37:44;;;;;;;0.30;0.30;;;;;;;17.04;48.71;98892.66;4981039;28;19925;-74
2023/07/12 11:40:16;;;;;;;0.30;0.30;;;;;;;17.08;48.25;98855.75;4966769;28;20047;-75
2023/07/12 11:42:42;;;;;;;0.30;0.30;;;;;;;17.61;46.50;98898.53;4967550;28;20074;-74